Stations météo

réclame
Mon MeteoGroup
Herwijnen aws, Pays-Bas (6356): Température de l'air & dewpoint: 11.01.2019 01:00:00 - 17.01.2019 01:00:00 (CET)Herwijnen aws, Pays-Bas (6356): Température de l'air 5cm: 11.01.2019 01:00:00 - 17.01.2019 01:00:00 (CET)Herwijnen aws, Pays-Bas (6356): Vitesse du vent & gusts: 11.01.2019 01:00:00 - 17.01.2019 01:00:00 (CET)Herwijnen aws, Pays-Bas (6356): Direction du vent: 11.01.2019 01:00:00 - 17.01.2019 01:00:00 (CET)Herwijnen aws, Pays-Bas (6356): reduced air pressure: 11.01.2019 01:00:00 - 17.01.2019 01:00:00 (CET)Herwijnen aws, Pays-Bas (6356): Quantités de précipitations: 11.01.2019 01:00:00 - 17.01.2019 01:00:00 (CET)
Date & Time tt [°C] td [°C] tt 5cm [°C] ff [km/h] ff [knt] fx [km/h] fx [knt] dd ppp [hPa] rr [mm]
17.01.2019 01:00:00 4,2 3,8 3,9 7 4 22 12 SW 1001,5 0,3
17.01.2019 00:00:00 4,8 3,8 4,6 22 12 47 25 WNW 1001,5 1,0
16.01.2019 23:00:00 5,5 4,6 5,3 25 14 43 23 SW 1000,8 0,3
16.01.2019 22:00:00 5,5 3,9 5,0 29 16 43 23 SSW 1000,7 0,0
16.01.2019 21:00:00 5,3 3,6 4,9 29 16 40 21 SSW 1001,2 0,2
16.01.2019 20:00:00 5,2 3,4 4,8 25 14 40 21 SSW 1001,9 0,2
16.01.2019 19:00:00 5,4 2,6 5,1 25 14 36 19 SSW 1002,6 0,0
16.01.2019 18:00:00 5,1 2,2 4,7 22 12 40 21 SSW 1003,4 0,0
16.01.2019 17:00:00 5,7 2,8 5,4 22 12 40 21 SSW 1004,1 0,0
16.01.2019 16:00:00 5,8 2,7 5,6 25 14 43 23 SSW 1004,7 0,0
16.01.2019 15:00:00 6,1 3,3 6,0 25 14 43 23 SSW 1005,5 0,0
16.01.2019 14:00:00 6,3 3,6 6,2 29 16 43 23 SSW 1006,4 0,0
16.01.2019 13:00:00 6,4 3,8 6,4 29 16 43 23 SSW 1007,4 0,0
16.01.2019 12:00:00 6,4 3,7 6,4 29 16 43 23 SSW 1008,4 0,0
16.01.2019 11:00:00 6,4 4,1 6,2 29 16 43 23 SSW 1009,3 0,0
16.01.2019 10:00:00 6,0 4,0 5,7 29 16 40 21 SW 1009,9 0,0
16.01.2019 09:00:00 5,8 4,9 5,5 25 14 32 18 SW 1010,1 0,0
16.01.2019 08:00:00 6,2 5,0 6,0 25 14 40 21 SW 1010,1 0,0
16.01.2019 07:00:00 6,6 5,5 6,3 25 14 40 21 SW 1010,5 0,0
16.01.2019 06:00:00 6,5 6,0 6,4 22 12 36 19 SW 1011,2 0,2
16.01.2019 05:00:00 6,8 6,0 6,6 22 12 36 19 SW 1011,8 0,0
16.01.2019 04:00:00 7,2 6,1 6,9 22 12 40 21 SW 1012,4 0,0
16.01.2019 03:00:00 7,5 5,8 7,3 25 14 40 21 SW 1012,9 0,0
16.01.2019 02:00:00 7,5 5,2 7,1 22 12 36 19 SW 1013,0 0,0
16.01.2019 01:00:00 7,5 5,1 7,1 29 16 40 21 SW 1013,6 0,0
16.01.2019 00:00:00 7,3 5,0 7,0 25 14 40 21 SW 1014,2 0,0
15.01.2019 23:00:00 7,2 4,9 6,9 25 14 36 19 SW 1014,7 0,0
15.01.2019 22:00:00 7,2 4,8 6,8 22 12 32 18 SW 1015,2 0,0
15.01.2019 21:00:00 7,1 4,9 6,8 25 14 40 21 WSW 1015,4 0,0
15.01.2019 20:00:00 7,3 5,1 7,0 29 16 43 23 WSW 1015,6 0,0
15.01.2019 19:00:00 7,2 5,1 6,9 25 14 36 19 WSW 1015,9 0,0
15.01.2019 18:00:00 7,2 5,1 6,9 25 14 40 21 WSW 1016,0 0,0
15.01.2019 17:00:00 7,3 5,1 7,0 25 14 47 25 WSW 1016,1 0,0
15.01.2019 16:00:00 7,5 5,0 7,3 29 16 40 21 WSW 1016,1 0,0
15.01.2019 15:00:00 7,4 5,4 7,3 25 14 40 21 WSW 1016,4 0,0
15.01.2019 14:00:00 6,9 4,9 6,8 29 16 43 23 WSW 1016,8 0,0
15.01.2019 13:00:00 6,8 4,9 6,7 25 14 40 21 WSW 1017,3 0,0
15.01.2019 12:00:00 6,9 5,0 7,0 29 16 43 23 WSW 1017,8 0,0
15.01.2019 11:00:00 6,5 5,1 6,4 25 14 36 19 WSW 1017,8 0,0
15.01.2019 10:00:00 5,9 4,8 5,6 25 14 36 19 WSW 1018,1 0,0
15.01.2019 09:00:00 5,5 4,6 5,0 22 12 29 16 WSW 1018,4 0,0
15.01.2019 08:00:00 5,0 4,2 4,1 22 12 29 16 SW 1018,3 0,0
15.01.2019 07:00:00 4,7 3,9 4,2 22 12 29 16 SW 1018,5 0,0
15.01.2019 06:00:00 4,3 3,5 3,6 18 10 25 14 SW 1019,1 0,0
15.01.2019 05:00:00 2,9 2,4 2,0 18 10 22 12 SW 1019,3 0,0
15.01.2019 04:00:00 1,9 1,4 1,0 14 8 22 12 SSW 1020,0 0,0
15.01.2019 03:00:00 1,2 0,7 -0,2 11 6 18 10 SW 1020,4 0,0
15.01.2019 02:00:00 2,1 1,2 1,0 14 8 18 10 SW 1020,4 0,0
15.01.2019 01:00:00 1,0 0,2 -0,6 11 6 14 8 SW 1020,4 0,0
15.01.2019 00:00:00 -0,3 -1,1 -2,8 11 6 11 6 SW 1020,6 0,0
14.01.2019 23:00:00 0,2 -0,7 -1,8 7 4 14 8 SW 1020,8 0,0
14.01.2019 22:00:00 1,3 0,3 -0,2 7 4 22 12 WNW 1020,8 0,0
14.01.2019 21:00:00 1,7 0,3 0,7 11 6 22 12 WSW 1020,5 0,0
14.01.2019 20:00:00 0,5 -0,5 -0,8 11 6 14 8 W 1020,2 0,0
14.01.2019 19:00:00 0,9 0,0 0,1 11 6 18 10 W 1019,8 0,0
14.01.2019 18:00:00 4,0 1,6 3,5 18 10 29 16 NW 1019,1 0,0
14.01.2019 17:00:00 4,5 1,0 3,9 22 12 36 19 WNW 1018,6 0,0
14.01.2019 16:00:00 5,4 1,2 4,8 22 12 40 21 NW 1017,8 0,0
14.01.2019 15:00:00 5,7 1,4 5,0 22 12 40 21 NW 1017,1 0,0
14.01.2019 14:00:00 6,0 2,7 5,6 18 10 36 19 NW 1016,4 0,0
14.01.2019 13:00:00 5,1 2,1 5,7 29 16 43 23 NW 1016,2 0,1
14.01.2019 12:00:00 5,5 3,0 5,4 18 10 29 16 NW 1015,4 0,1
14.01.2019 11:00:00 5,9 3,4 6,0 18 10 29 16 NW 1014,8 0,0
14.01.2019 10:00:00 5,6 4,1 5,4 11 6 22 12 WNW 1014,1 0,0
14.01.2019 09:00:00 5,2 4,2 4,8 11 6 25 14 NNW 1013,1 0,0
14.01.2019 08:00:00 5,9 4,4 5,2 18 10 36 19 NW 1011,3 0,0
14.01.2019 07:00:00 6,3 4,1 5,5 25 14 54 29 WNW 1010,3 0,3
14.01.2019 06:00:00 6,0 4,5 5,4 18 10 32 18 WNW 1009,7 0,0
14.01.2019 05:00:00 6,1 4,2 5,3 22 12 40 21 WNW 1009,1 0,4
14.01.2019 04:00:00 7,3 4,5 6,6 22 12 36 19 WNW 1008,7 0,1
14.01.2019 03:00:00 7,6 4,3 7,0 29 16 47 25 WNW 1007,8 0,0
14.01.2019 02:00:00 7,9 4,5 7,3 29 16 43 23 WNW 1007,0 0,0
14.01.2019 01:00:00 7,5 4,6 6,8 25 14 47 25 WNW 1006,3 0,0
14.01.2019 00:00:00 8,1 4,6 7,4 32 18 43 23 WNW 1005,9 0,0
13.01.2019 23:00:00 7,9 4,8 7,1 25 14 43 23 WNW 1005,3 0,0
13.01.2019 22:00:00 8,1 5,1 7,3 29 16 43 23 WNW 1005,0 0,0
13.01.2019 21:00:00 8,4 5,5 7,4 29 16 40 21 WNW 1004,2 0,0
13.01.2019 20:00:00 8,8 5,9 8,2 32 18 58 31 WNW 1003,6 0,0
13.01.2019 19:00:00 9,5 6,7 8,9 43 23 65 35 WNW 1003,2 0,0
13.01.2019 18:00:00 9,6 7,5 9,0 40 21 58 31 W 1003,1 0,5
13.01.2019 17:00:00 9,7 7,2 9,1 40 21 61 33 W 1003,5 0,0
13.01.2019 16:00:00 9,9 7,6 9,4 43 23 61 33 W 1003,5 0,0
13.01.2019 15:00:00 9,4 7,9 9,0 36 19 50 27 W 1004,2 0,0
13.01.2019 14:00:00 9,6 8,0 9,2 32 18 54 29 W 1004,4 0,1
13.01.2019 13:00:00 9,5 8,1 9,0 36 19 54 29 W 1005,5 0,1
13.01.2019 12:00:00 9,2 8,2 8,9 29 16 43 23 W 1006,4 0,8
13.01.2019 11:00:00 8,9 8,3 8,8 29 16 40 21 W 1007,1 0,4
13.01.2019 10:00:00 9,5 7,7 9,1 29 16 43 23 W 1007,5 0,0
13.01.2019 09:00:00 9,5 7,8 9,1 32 18 47 25 W 1008,2 0,0
13.01.2019 08:00:00 9,2 8,3 8,8 29 16 40 21 W 1008,2 0,9
13.01.2019 07:00:00 9,0 8,6 8,8 29 16 40 21 W 1008,7 1,8
13.01.2019 06:00:00 8,7 8,5 8,4 22 12 32 18 W 1009,0 0,3
13.01.2019 05:00:00 8,1 8,0 8,1 14 8 25 14 WSW 1010,1 0,1
13.01.2019 04:00:00 8,2 7,9 8,0 18 10 29 16 W 1011,2 0,1
13.01.2019 03:00:00 8,0 7,8 7,8 18 10 29 16 W 1011,6 0,2
13.01.2019 02:00:00 7,6 7,5 7,6 14 8 25 14 W 1012,3 0,3
13.01.2019 01:00:00 7,6 7,1 7,4 18 10 29 16 W 1012,8 0,0
13.01.2019 00:00:00 7,6 6,8 7,3 18 10 25 14 W 1013,0 0,0
12.01.2019 23:00:00 7,7 6,5 7,4 18 10 29 16 W 1013,5 0,0
12.01.2019 22:00:00 7,8 6,5 7,4 18 10 29 16 WNW 1013,8 0,3
12.01.2019 21:00:00 7,7 6,6 7,3 22 12 36 19 W 1013,9 0,3
12.01.2019 20:00:00 7,6 6,6 7,3 25 14 32 18 W 1014,2 0,4
12.01.2019 19:00:00 7,7 6,5 7,2 22 12 36 19 W 1014,2 0,0
12.01.2019 18:00:00 7,5 6,1 6,9 25 14 40 21 W 1014,2 0,0
12.01.2019 17:00:00 7,6 6,4 7,4 32 18 50 27 W 1014,7 1,2
12.01.2019 16:00:00 8,4 6,9 8,0 29 16 40 21 WNW 1014,9 0,1
12.01.2019 15:00:00 8,1 7,5 8,0 29 16 40 21 W 1014,7 0,6
12.01.2019 14:00:00 7,9 7,3 7,8 32 18 47 25 W 1015,5 0,3
12.01.2019 13:00:00 7,7 7,1 7,3 32 18 43 23 W 1016,5 0,4
12.01.2019 12:00:00 6,6 6,2 6,5 29 16 40 21 WSW 1017,7 0,7
12.01.2019 11:00:00 6,3 5,9 6,3 25 14 40 21 WSW 1018,5 0,2
12.01.2019 10:00:00 6,5 4,7 6,3 25 14 40 21 SW 1019,1 0,0
12.01.2019 09:00:00 6,4 4,3 6,0 25 14 40 21 WSW 1020,4 0,0
12.01.2019 08:00:00 6,3 3,6 5,7 25 13 - - WSW 1020,7 -
12.01.2019 07:00:00 6,1 3,4 5,6 22 12 29 16 WSW 1021,4 0,0
12.01.2019 06:00:00 6,4 4,7 6,0 14 8 32 18 WSW 1022,2 0,0
12.01.2019 05:00:00 6,4 5,4 5,9 18 10 22 12 W 1023,0 0,0
12.01.2019 04:00:00 6,2 5,2 5,7 14 8 22 12 WSW 1023,5 0,0
12.01.2019 03:00:00 6,2 5,3 5,4 18 10 22 12 W 1024,2 0,0
12.01.2019 02:00:00 5,6 5,2 5,2 14 8 22 12 W 1024,6 0,0
12.01.2019 01:00:00 5,8 5,3 5,1 14 8 25 14 W 1025,1 0,0
12.01.2019 00:00:00 5,8 5,5 5,4 18 10 25 14 W 1025,2 0,0
11.01.2019 23:00:00 6,2 5,6 5,9 14 8 25 14 WNW 1025,3 0,1
11.01.2019 22:00:00 6,5 6,1 6,3 18 10 36 19 WNW 1025,4 0,1
11.01.2019 21:00:00 6,6 5,7 6,1 22 12 32 18 NW 1025,2 0,0
11.01.2019 20:00:00 6,9 5,8 6,3 18 10 29 16 WNW 1025,2 0,1
11.01.2019 19:00:00 7,1 6,5 6,9 18 10 29 16 NW 1024,9 0,0
11.01.2019 18:00:00 7,3 6,3 6,9 22 12 29 16 WNW 1024,7 0,0
11.01.2019 17:00:00 7,3 6,6 7,1 18 10 29 16 NW 1024,5 0,0
11.01.2019 16:00:00 7,8 6,7 7,6 18 10 36 19 NW 1024,5 0,0
11.01.2019 15:00:00 8,0 7,0 8,0 18 10 36 19 NW 1024,2 0,0
11.01.2019 14:00:00 8,1 7,0 8,1 22 12 29 16 NW 1024,3 0,0
11.01.2019 13:00:00 8,2 7,1 8,0 18 10 29 16 WNW 1024,7 0,0
11.01.2019 12:00:00 7,6 7,2 7,6 18 10 25 14 WNW 1025,1 0,1
11.01.2019 11:00:00 7,2 6,9 7,1 14 8 22 12 WNW 1025,1 0,1
11.01.2019 10:00:00 7,0 6,8 6,8 11 6 18 10 WNW 1025,0 0,0
11.01.2019 09:00:00 6,7 6,6 6,1 11 6 14 8 NW 1025,1 0,0
11.01.2019 08:00:00 6,3 6,2 5,6 7 4 11 6 NW 1024,8 0,0
11.01.2019 07:00:00 5,4 5,3 5,3 7 4 11 6 W 1024,3 0,2
11.01.2019 06:00:00 5,0 4,8 4,9 7 4 18 10 W 1024,2 0,1
11.01.2019 05:00:00 4,5 4,4 4,5 14 8 22 12 WSW 1024,3 0,0
11.01.2019 04:00:00 4,3 4,2 4,2 14 8 25 14 WSW 1024,7 0,0
11.01.2019 03:00:00 3,8 3,7 3,8 14 8 22 12 SW 1025,0 0,2
11.01.2019 02:00:00 3,5 3,4 3,5 14 8 25 14 SW 1025,2 0,2
11.01.2019 01:00:00 3,2 3,0 3,2 14 8 25 14 SW 1025,7 0,1

tt = Température de l'air
td = dewpoint
tt 5cm = Température de l'air 5cm
ff = Vitesse du vent
fx = gusts
dd = Direction du vent
ppp = reduced air pressure
rr = Quantités de précipitations

stations d'obs. à proximité